Close sub menu
NASDAQ
NY-Nasdaq Composite 26247,076 +440,88 +1,71% (23:16)
Stijgers 1 dag
Dalers 1 dag
Indices 1 dag
Micron Technology Inc +15,5%
Intel Corp +14,0%
Monster Beverage Corp +13,6%
Moderna +12,0%
Advanced Micro Devices +11,4%
QUALCOMM +8,2%
Marvell Technology +6,3%
Datadog +6,1%
Applied Materials +6,0%
KLA Corp +6,0%
Palo Alto Networks Inc +5,8%
Fortinet +5,6%
MercadoLibre -12,7%
CoStar Group -6,3%
Charter Communications -3,4%
Comcast Corp -3,2%
Booking Holdings Inc. -3,1%
PDD Holdings -2,7%
Autodesk -2,6%
Dollar Tree -2,6%
Intuit -2,6%
Constellation Energy Corp -2,5%
Microchip Technology -2,5%
Workday -2,3%
AEX* 1.017,50-0,2%
Midkap* 1.049,07-0,5%
AMS Next 20®* 1.664,320,0%
FTSE100 10.233,07-0,4%
Dow Jones 49.609,160,0%
NASDAQ 26.247,076+1,7%
S&P500 7.398,93+0,8%
S&P Future 7.420,50+0,8%
BEL20** 5.463,32-0,1%
CAC 40** 8.112,57-1,1%
DAX 24.338,63-1,3%
* real time    ** slotkoers
NaamKoersVorige+/- %1 wk1 mndDit jaar 1 jaarTijd
Adobe 253,04 256,51 -1,4% +0,9% +5,7% -27,7% -34,1% 22:00
Advanced Micro Devices 455,07 408,46 +11,4% +26,2% +96,3% +112,5% +347,5% 22:00
Airbnb 141,49 140,46 +0,7% -0,1% +7,7% +4,3% +11,9% 22:00
Align Technology 168,77 168,39 +0,2% -5,7% -4,6% +8,1% -6,7% 22:00
Alphabet 397,05 395,30 +0,4% +3,6% +26,2% +26,5% +154,9% 22:00
Alphabet 400,71 397,99 +0,7% +3,9% +26,3% +28,0% +159,7% 22:00
Amazon.com 272,68 271,17 +0,6% +1,6% +23,2% +18,1% +42,0% 22:00
American Electric Power Company 130,13 131,76 -1,2% -5,0% -3,4% +12,9% +23,7% 22:00
Amgen 331,70 329,09 +0,8% +0,6% -5,2% +1,3% +21,9% 22:00
Analog Devices 416,60 408,52 +2,0% +4,8% +20,3% +53,6% +105,4% 22:00
Ansys 374,30 374,30 -- -- -4,7% +11,0% +15,2% 22:00
Apple 293,26 287,44 +2,0% +4,6% +13,3% +7,9% +48,5% 22:00
Applied Materials 435,36 410,64 +6,0% +11,9% +12,9% +69,4% +179,1% 22:00
ASML Holding NV 1.592,02 1.516,60 +5,0% +11,5% +12,0% +48,8% +124,9% 22:00
AstraZeneca PLC 194,94 194,94 0,0% -- +0,3% +112,1% +200,4% 00:00
Atlassian Corp 91,60 92,37 -0,8% +3,1% +44,0% -43,5% -56,0% 22:00
Autodesk 244,45 251,04 -2,6% 0,0% +1,6% -17,4% -15,6% 22:00
Automatic Data Processing 213,02 214,09 -0,5% -0,6% +6,1% -17,2% -30,6% 22:00
Baker Hughes Company 63,90 63,53 +0,6% -7,5% +1,2% +40,3% +76,3% 22:00
Biogen 193,67 191,38 +1,1% +3,5% +7,7% +10,0% +63,6% 22:00
Booking Holdings Inc. 165,99 171,28 -3,1% -2,1% -8,3% -22,5% -19,7% 22:00
Broadcom Inc. 430,00 412,56 +4,2% +2,1% +22,6% +24,2% +107,0% 22:00
Cadence Design Systems 362,70 356,90 +1,6% +6,4% +25,3% +16,0% +17,8% 22:00
Charter Communications 154,82 160,24 -3,4% -9,9% -30,1% -25,8% -61,7% 22:00
Cintas Corp 166,96 170,04 -1,8% -1,6% -4,4% -11,2% -22,3% 22:00
Cisco Systems 96,57 92,16 +4,8% +5,1% +15,4% +25,4% +61,7% 22:00
Cognizant Technology Solutions Corp 51,68 51,94 -0,5% -1,4% -15,3% -37,7% -34,8% 22:00
Comcast Corp 25,40 26,24 -3,2% -6,5% -9,2% -15,0% -25,8% 22:00
Constellation Energy Corp 303,68 311,28 -2,5% -1,3% +6,8% -14,0% +12,2% 22:00
Copart 33,94 33,88 +0,2% +2,0% +2,3% -13,3% -45,1% 22:00
CoStar Group 32,77 34,98 -6,3% -5,6% -15,6% -51,3% -56,8% 22:00
Costco Wholesale Corp 1.008,50 1.012,06 -0,3% -0,3% -2,1% +16,9% +0,1% 22:00
CrowdStrike Holdings 527,77 505,72 +4,4% +15,8% +23,7% +12,6% +23,1% 22:00
CSX Corp 44,81 44,46 +0,8% -0,6% +6,3% +23,6% +54,7% 22:00
Datadog 200,16 188,73 +6,1% +42,4% +71,8% +47,2% +83,3% 22:00
DexCom 60,61 60,91 -0,5% -1,2% -7,9% -8,7% -29,0% 22:00
Diamondback Energy 188,70 190,45 -0,9% -9,2% +1,2% +25,5% +38,6% 22:00
Dollar Tree 94,23 96,76 -2,6% -0,5% -10,8% -23,4% +10,4% 22:00
eBay 107,65 106,42 +1,2% +3,5% +11,2% +23,6% +52,6% 22:00
Electronic Arts 200,38 200,85 -0,2% -0,8% -1,8% -1,9% +28,7% 22:00
Enphase Energy 36,45 35,47 +2,8% +7,7% +11,9% +13,7% -25,7% 22:00
Exelon Corp 43,91 44,41 -1,1% -5,6% -10,7% +0,7% -2,6% 22:00
Fastenal Co 44,17 44,36 -0,4% -1,6% -8,3% +10,1% +11,4% 22:00
Fortinet 114,07 107,97 +5,6% +32,2% +36,6% +43,6% +16,7% 22:00
Gilead Sciences 131,34 134,06 -2,0% -0,2% -7,2% +7,0% +33,8% 22:00
GlobalFoundries 74,12 70,93 +4,5% +14,2% +55,1% +112,3% +106,2% 22:00
Honeywell International 213,14 216,07 -1,4% +0,3% -8,3% +9,3% -0,7% 22:00
IDEXX Laboratories 559,96 572,20 -2,1% -1,4% -5,4% -17,2% +14,3% 22:00
Illumina 141,87 138,71 +2,3% +4,5% +10,8% +8,2% +78,3% 22:00
Intel Corp 124,90 109,62 +14,0% +25,4% +111,9% +238,5% +494,7% 22:00
Intuit 396,31 406,78 -2,6% -0,7% +1,7% -40,2% -39,6% 22:00
Intuitive Surgical 450,06 453,49 -0,8% -1,7% -2,6% -20,5% -16,4% 22:00
JD.com 30,13 30,21 -0,3% +0,6% +3,7% +5,0% -11,7% 22:00
Keurig Dr Pepper 28,83 28,52 +1,1% -0,9% +11,6% +2,9% -15,6% 22:00
KLA Corp 1.869,19 1.763,25 +6,0% +8,3% +11,8% +53,8% +165,8% 22:00
Kraft Heinz Company (The) 23,96 23,64 +1,4% +6,6% +4,4% -1,2% -15,9% 22:00
Lam Research Corp 294,05 286,52 +2,6% +14,6% +19,3% +71,8% +292,6% 22:00
Lucid Group Inc 6,34 6,05 +4,8% -3,3% -28,1% -40,0% -72,6% 22:00
lululemon athletica 131,17 133,59 -1,8% -1,8% -17,4% -36,9% -53,6% 22:00
Marriott International 353,18 352,05 +0,3% -0,5% +1,3% +13,8% +36,2% 22:00
Marvell Technology 170,13 160,01 +6,3% +3,2% +48,7% +100,2% +195,2% 22:00
MercadoLibre 1.633,00 1.870,01 -12,7% -11,7% -8,0% -18,9% -32,2% 22:00
Meta Platforms 609,65 616,81 -1,2% +0,1% -0,5% -7,6% +1,9% 22:00
Microchip Technology 99,09 101,58 -2,5% +5,5% +40,1% +55,5% +101,6% 22:00
Micron Technology Inc 746,79 646,63 +15,5% +37,7% +83,6% +161,7% +777,0% 22:00
Microsoft Corp 415,06 420,77 -1,3% +0,2% +10,9% -14,2% -5,3% 22:00
Moderna 54,35 48,54 +12,0% +19,8% +4,3% +84,3% +122,9% 22:00
Mondelez International 61,55 61,31 +0,4% +0,3% +4,6% +14,3% -8,4% 22:00
Monster Beverage Corp 86,31 75,97 +13,6% +11,9% +14,9% +12,6% +43,5% 22:00
Netflix Inc. 87,48 88,25 -0,9% -5,0% -12,0% -6,7% -23,6% 22:00
NVIDIA Corp 215,22 211,50 +1,7% +8,5% +18,2% +15,4% +83,4% 22:00
NXP Semiconductors NV 294,68 290,22 +1,6% -0,2% +44,3% +35,8% +56,3% 22:00
Old Dominion Freight Line 198,33 198,06 +0,1% -3,6% -4,4% +26,5% +23,9% 22:00
O'Reilly Automotive Inc 92,96 94,58 -1,7% -3,8% -0,1% +1,9% +2,5% 22:00
PACCAR 114,31 114,05 +0,2% -1,5% -8,0% +4,4% +24,8% 22:00
Palo Alto Networks Inc 207,88 196,53 +5,8% +14,8% +19,6% +12,9% +10,3% 22:00
Paychex 93,93 94,26 -0,4% +1,0% +4,5% -16,3% -37,9% 22:00
PayPal Holdings 45,37 46,22 -1,8% -10,0% -1,0% -22,3% -35,6% 22:00
PDD Holdings 98,78 101,51 -2,7% -1,0% -4,8% -12,9% -10,1% 22:00
Pepsico 154,60 156,29 -1,1% -1,8% -0,1% +7,7% +17,6% 22:00
QUALCOMM 219,23 202,55 +8,2% +23,8% +71,9% +28,2% +51,1% 22:00
Regeneron Pharmaceuticals 714,88 709,10 +0,8% +1,9% -7,8% -7,4% +30,5% 22:00
Rivian Automotive 14,21 14,18 +0,3% -5,4% -6,1% -27,9% +3,9% 22:00
Ross Stores 225,81 224,48 +0,6% -1,3% +0,6% +25,4% +57,5% 22:00
Seagen 228,89 228,74 -- -- +7,2% +78,1% +78,3% 22:00
SiriusXM Holdings Inc 27,09 26,75 +1,3% -0,5% +15,4% +35,5% +24,7% 22:00
Starbucks Corp 104,94 104,26 +0,6% -0,9% +8,0% +24,6% +27,7% 22:00
Synopsys 516,48 505,19 +2,2% +5,7% +25,9% +10,0% +6,6% 22:00
Tesla 428,35 411,79 +4,0% +9,6% +24,8% -4,8% +50,4% 22:00
Texas Instruments 287,89 285,24 +0,9% +2,5% +37,8% +65,9% +73,8% 22:00
T-Mobile US 193,62 194,20 -0,3% -1,2% -2,0% -4,6% -21,8% 22:00
Verisk Analytics 171,88 174,69 -1,6% -5,0% -2,0% -23,2% -44,2% 22:00
Vertex Pharmaceuticals 429,84 425,00 +1,1% +1,4% -3,2% -5,2% +0,1% 22:00
Walgreens Boots Alliance 11,98 11,98 -- -- +0,5% +28,4% +40,6% 22:00
Warner Bros Discovery 27,09 27,12 0,0% +0,4% -1,7% -6,0% +200,7% 22:00
Workday 127,83 130,88 -2,3% +0,7% +7,3% -40,5% -50,4% 22:00
Xcel Energy 79,37 80,43 -1,3% -3,9% -2,6% +7,5% +13,1% 22:00
Zoom Communications Inc 109,22 108,36 +0,8% +5,6% +31,2% +26,6% +36,1% 22:00
Zscaler 152,13 152,79 -0,4% +8,8% +10,4% -32,4% -34,8% 22:00
Powered by

Schakel browser notificaties in

Schakel browser notificaties in om meldingen te ontvangen op dit apparaat.

Browser notificaties inschakelen

U heeft browser notificaties voor fd.nl eerder geweigerd. Ga naar browser instellingen en sta browser notificaties toe voor fd.nl. De precieze handelingen zijn afhankelijk van uw browser.

U volgt een onderwerp

Wanneer deze zoekterm in een artikel voorkomt, zult u deze terugvinden in Mijn nieuws onder ‘Eurobonds’.

Wilt u via de FD App meldingen ontvangen voor dit onderwerp?

Wilt u via de FD App meldingen ontvangen voor dit onderwerp?

Ons privacy statement is van toepassing.

Meldingen

Wanneer deze zoekterm in een artikel voorkomt, zult u deze terugvinden in Mijn nieuws onder ‘Eurobonds’.

Wilt u via de FD App meldingen ontvangen voor dit onderwerp?

Wilt u via de FD App meldingen ontvangen voor dit onderwerp?